Time;durP1;ratioP1;P1;durP2;ratioP2;P2;SDS_P1;SDS_P2;PMS_P1;PMS_P2;Temp;Humidity;BMP_temperature;BMP_pressure;BME280_temperature;BME280_humidity;BME280_pressure;Samples;Min_cycle;Max_cycle;Signal;HPM_P1;HPM_P2
2024/02/21 00:01:48;;;;;;;;;;;;;;;4.27;100.00;97166.48;108053;1267;22512;-85
2024/02/21 00:04:16;;;;;;;;;;;;;;;4.26;100.00;97164.98;108142;1285;22547;-84
2024/02/21 00:06:42;;;;;;;;;;;;;;;4.23;100.00;97170.36;108059;1288;25237;-85
2024/02/21 00:09:09;;;;;;;;;;;;;;;4.22;100.00;97166.49;108186;1283;22631;-85
2024/02/21 00:11:36;;;;;;;;;;;;;;;4.22;100.00;97164.09;108070;1287;23643;-85
2024/02/21 00:14:02;;;;;;;;;;;;;;;4.20;100.00;97161.66;108134;1268;22559;-85
2024/02/21 00:16:28;;;;;;;;;;;;;;;4.18;100.00;97165.82;108126;1288;22532;-85
2024/02/21 00:18:55;;;;;;;;;;;;;;;4.17;100.00;97167.20;108177;1280;23820;-85
2024/02/21 00:21:21;;;;;;;;;;;;;;;4.18;100.00;97164.59;108134;1287;22507;-85
2024/02/21 00:23:50;;;;;;;;;;;;;;;4.17;100.00;97161.56;108133;1281;22913;-85
2024/02/21 00:26:16;;;;;;;;;;;;;;;4.17;100.00;97157.14;108154;1280;22504;-85
2024/02/21 00:28:43;;;;;;;;;;;;;;;4.15;100.00;97155.90;108170;1287;22507;-85
2024/02/21 00:31:10;;;;;;;;;;;;;;;4.12;100.00;97156.71;108178;1269;25173;-86
2024/02/21 00:33:36;;;;;;;;;;;;;;;4.11;100.00;97154.54;108173;1280;23815;-85
2024/02/21 00:36:03;;;;;;;;;;;;;;;4.09;100.00;97149.57;108057;1281;22514;-85
2024/02/21 00:38:29;;;;;;;;;;;;;;;4.09;100.00;97149.60;108096;1289;24191;-85
2024/02/21 00:40:56;;;;;;;;;;;;;;;4.12;100.00;97145.39;108173;1281;22580;-86
2024/02/21 00:43:23;;;;;;;;;;;;;;;4.15;100.00;97142.75;108001;1285;22627;-86
2024/02/21 00:45:54;;;;;;;;;;;;;;;4.17;100.00;97140.09;108158;1287;22570;-85
2024/02/21 00:48:20;;;;;;;;;;;;;;;4.21;100.00;97138.82;108103;1284;22552;-86
2024/02/21 00:50:47;;;;;;;;;;;;;;;4.21;100.00;97137.95;108195;1287;26625;-85
2024/02/21 00:53:13;;;;;;;;;;;;;;;4.19;100.00;97134.47;108209;1287;25212;-86
2024/02/21 00:55:40;;;;;;;;;;;;;;;4.19;100.00;97130.87;108020;1281;22532;-85
2024/02/21 00:58:06;;;;;;;;;;;;;;;4.22;100.00;97126.89;108130;1283;22508;-86
2024/02/21 01:00:33;;;;;;;;;;;;;;;4.22;100.00;97117.61;108108;1287;22509;-85
2024/02/21 01:02:59;;;;;;;;;;;;;;;4.22;100.00;97118.28;108100;1282;22693;-85
2024/02/21 01:05:27;;;;;;;;;;;;;;;4.21;100.00;97120.21;108135;1269;23932;-85
2024/02/21 01:07:53;;;;;;;;;;;;;;;4.21;100.00;97119.94;108092;1287;22516;-86
2024/02/21 01:10:20;;;;;;;;;;;;;;;4.18;100.00;97113.29;108080;1284;22562;-85
2024/02/21 01:12:46;;;;;;;;;;;;;;;4.17;100.00;97109.48;108172;1280;22520;-85
2024/02/21 01:15:13;;;;;;;;;;;;;;;4.16;100.00;97103.02;108200;1284;22508;-86
2024/02/21 01:17:40;;;;;;;;;;;;;;;4.12;100.00;97099.59;108186;1280;22520;-86
2024/02/21 01:20:07;;;;;;;;;;;;;;;4.07;100.00;97097.59;108162;1271;22545;-86
2024/02/21 01:22:33;;;;;;;;;;;;;;;4.04;100.00;97093.90;108031;1283;23713;-85
2024/02/21 01:24:59;;;;;;;;;;;;;;;4.06;100.00;97095.06;108130;1281;22517;-85
2024/02/21 01:27:26;;;;;;;;;;;;;;;4.06;100.00;97098.16;108080;1288;22544;-85
2024/02/21 01:29:52;;;;;;;;;;;;;;;4.04;100.00;97096.13;108143;1287;24242;-86
2024/02/21 01:32:19;;;;;;;;;;;;;;;4.04;100.00;97097.13;108229;1287;22517;-85
2024/02/21 01:34:45;;;;;;;;;;;;;;;4.06;100.00;97094.38;108113;1287;23751;-85
2024/02/21 01:37:12;;;;;;;;;;;;;;;4.05;100.00;97095.02;108115;1288;22725;-85
2024/02/21 01:39:38;;;;;;;;;;;;;;;4.04;100.00;97089.46;108163;1288;22527;-85
2024/02/21 01:42:05;;;;;;;;;;;;;;;4.05;100.00;97087.80;108154;1287;22545;-85
2024/02/21 01:44:31;;;;;;;;;;;;;;;4.07;100.00;97086.30;108184;1270;22998;-85
2024/02/21 01:46:58;;;;;;;;;;;;;;;4.08;100.00;97082.42;108006;1288;22507;-85
2024/02/21 01:49:25;;;;;;;;;;;;;;;4.07;100.00;97079.90;108129;1270;25191;-85
2024/02/21 01:51:51;;;;;;;;;;;;;;;4.09;100.00;97078.27;108138;1283;22510;-85
2024/02/21 01:54:17;;;;;;;;;;;;;;;4.09;100.00;97077.58;108069;1287;22511;-85
2024/02/21 01:56:44;;;;;;;;;;;;;;;4.06;100.00;97073.70;108073;1279;25394;-85
2024/02/21 01:59:10;;;;;;;;;;;;;;;4.05;100.00;97072.50;108057;1284;23814;-85
2024/02/21 02:01:37;;;;;;;;;;;;;;;4.04;100.00;97066.62;108167;1287;22505;-85
2024/02/21 02:04:05;;;;;;;;;;;;;;;4.04;100.00;97071.73;108072;1287;22498;-85
2024/02/21 02:06:31;;;;;;;;;;;;;;;4.04;100.00;97069.86;108079;1288;24239;-85
2024/02/21 02:08:58;;;;;;;;;;;;;;;4.05;100.00;97068.27;108160;1280;22507;-84
2024/02/21 02:11:24;;;;;;;;;;;;;;;4.05;100.00;97067.87;108070;1288;23259;-85
2024/02/21 02:13:50;;;;;;;;;;;;;;;4.05;100.00;97068.24;108097;1283;22585;-85
2024/02/21 02:16:17;;;;;;;;;;;;;;;4.03;100.00;97064.28;108059;1288;22519;-85
2024/02/21 02:18:43;;;;;;;;;;;;;;;4.02;100.00;97061.11;108031;1287;22541;-85
2024/02/21 02:21:14;;;;;;;;;;;;;;;4.02;100.00;97060.46;108043;1288;23421;-85
2024/02/21 02:23:40;;;;;;;;;;;;;;;4.02;100.00;97058.08;108091;1272;22510;-85
2024/02/21 02:26:07;;;;;;;;;;;;;;;4.02;100.00;97056.35;108199;1274;24169;-85
2024/02/21 02:28:33;;;;;;;;;;;;;;;4.03;100.00;97057.46;108185;1280;22517;-85
2024/02/21 02:30:59;;;;;;;;;;;;;;;4.03;100.00;97054.87;108206;1287;25305;-85
2024/02/21 02:33:26;;;;;;;;;;;;;;;4.02;100.00;97054.95;108212;1283;22562;-85
2024/02/21 02:35:52;;;;;;;;;;;;;;;4.03;100.00;97053.81;108152;1277;22688;-85
2024/02/21 02:38:19;;;;;;;;;;;;;;;4.04;100.00;97049.45;108205;1280;23241;-85
2024/02/21 02:40:45;;;;;;;;;;;;;;;4.04;100.00;97047.28;108177;1281;22567;-85
2024/02/21 02:43:11;;;;;;;;;;;;;;;4.02;100.00;97047.60;108081;1283;23333;-85
2024/02/21 02:45:38;;;;;;;;;;;;;;;4.04;100.00;97046.05;108063;1288;22913;-85
2024/02/21 02:48:08;;;;;;;;;;;;;;;4.05;100.00;97046.48;108134;1287;24866;-85
2024/02/21 02:50:35;;;;;;;;;;;;;;;4.05;100.00;97046.62;108043;1288;25258;-85
2024/02/21 02:53:01;;;;;;;;;;;;;;;4.05;100.00;97045.08;108170;1270;22524;-85
2024/02/21 02:55:27;;;;;;;;;;;;;;;4.05;100.00;97046.45;108175;1281;24357;-84
2024/02/21 02:57:54;;;;;;;;;;;;;;;4.07;100.00;97048.07;108101;1289;22895;-84
2024/02/21 03:00:20;;;;;;;;;;;;;;;4.09;100.00;97044.96;108144;1289;22550;-85
2024/02/21 03:02:48;;;;;;;;;;;;;;;4.09;100.00;97043.07;108043;1270;23827;-85
2024/02/21 03:05:18;;;;;;;;;;;;;;;4.09;100.00;97041.55;108164;1287;24426;-85
2024/02/21 03:07:45;;;;;;;;;;;;;;;4.09;100.00;97041.22;108042;1288;22504;-85
2024/02/21 03:10:11;;;;;;;;;;;;;;;4.10;100.00;97041.64;108119;1280;22536;-85
2024/02/21 03:12:37;;;;;;;;;;;;;;;4.10;100.00;97043.16;108118;1288;22518;-85
2024/02/21 03:15:04;;;;;;;;;;;;;;;4.07;100.00;97043.43;108048;1287;23269;-85
2024/02/21 03:17:34;;;;;;;;;;;;;;;4.05;100.00;97041.88;108151;1287;24194;-85
2024/02/21 03:20:09;;;;;;;;;;;;;;;4.03;100.00;97044.98;108059;1284;25220;-85
2024/02/21 03:22:36;;;;;;;;;;;;;;;4.02;100.00;97041.11;108084;1284;24235;-85
2024/02/21 03:25:03;;;;;;;;;;;;;;;4.02;100.00;97043.14;108070;1287;22535;-85
2024/02/21 03:27:29;;;;;;;;;;;;;;;4.03;100.00;97035.86;108047;1283;22822;-85
2024/02/21 03:29:56;;;;;;;;;;;;;;;4.02;100.00;97037.78;108204;1280;25370;-85
2024/02/21 03:32:22;;;;;;;;;;;;;;;4.03;100.00;97036.38;108183;1280;22546;-85
2024/02/21 03:34:48;;;;;;;;;;;;;;;4.02;100.00;97032.96;108075;1287;22709;-85
2024/02/21 03:37:15;;;;;;;;;;;;;;;4.03;100.00;97033.31;108089;1283;22552;-85
2024/02/21 03:39:41;;;;;;;;;;;;;;;4.04;100.00;97030.13;108011;1284;22507;-85
2024/02/21 03:42:08;;;;;;;;;;;;;;;4.05;100.00;97026.10;108210;1287;23768;-85
2024/02/21 03:44:34;;;;;;;;;;;;;;;4.04;100.00;97026.71;108079;1280;22543;-85
2024/02/21 03:47:01;;;;;;;;;;;;;;;4.02;100.00;97028.02;108011;1289;22929;-85
2024/02/21 03:49:28;;;;;;;;;;;;;;;4.01;100.00;97024.56;108102;1276;22562;-85
2024/02/21 03:51:55;;;;;;;;;;;;;;;4.00;100.00;97025.53;107989;1289;22528;-85
2024/02/21 03:54:21;;;;;;;;;;;;;;;3.99;100.00;97024.04;108088;1287;22550;-85
2024/02/21 03:56:48;;;;;;;;;;;;;;;3.97;100.00;97024.54;108103;1288;22507;-85
2024/02/21 03:59:15;;;;;;;;;;;;;;;3.95;100.00;97023.66;108077;1284;27134;-85
2024/02/21 04:01:41;;;;;;;;;;;;;;;3.94;100.00;97024.25;108081;1288;22538;-86
2024/02/21 04:04:08;;;;;;;;;;;;;;;3.94;100.00;97024.64;108085;1287;25302;-85
2024/02/21 04:06:34;;;;;;;;;;;;;;;3.94;100.00;97023.55;108085;1288;22529;-85
2024/02/21 04:09:00;;;;;;;;;;;;;;;3.95;100.00;97018.88;108080;1287;22531;-85
2024/02/21 04:11:27;;;;;;;;;;;;;;;3.92;100.00;97013.42;108108;1288;22515;-85
2024/02/21 04:13:53;;;;;;;;;;;;;;;3.90;100.00;97008.08;108074;1274;22543;-85
2024/02/21 04:16:20;;;;;;;;;;;;;;;3.88;100.00;97006.86;108145;1280;23220;-85
2024/02/21 04:18:46;;;;;;;;;;;;;;;3.84;100.00;97008.26;108074;1286;22507;-85
2024/02/21 04:21:14;;;;;;;;;;;;;;;3.83;100.00;97003.88;108021;1283;22928;-85
2024/02/21 04:23:40;;;;;;;;;;;;;;;3.82;100.00;97000.19;108053;1283;23582;-85
2024/02/21 04:26:07;;;;;;;;;;;;;;;3.82;100.00;97000.92;108023;1283;22510;-85
2024/02/21 04:28:33;;;;;;;;;;;;;;;3.80;100.00;96997.80;108154;1288;22589;-85
2024/02/21 04:31:00;;;;;;;;;;;;;;;3.79;100.00;96992.57;108058;1270;22523;-85
2024/02/21 04:33:26;;;;;;;;;;;;;;;3.78;100.00;96992.77;108180;1271;22542;-85
2024/02/21 04:35:54;;;;;;;;;;;;;;;3.78;100.00;96993.35;108022;1288;24193;-85
2024/02/21 04:38:21;;;;;;;;;;;;;;;3.78;100.00;96987.54;108036;1286;22557;-85
2024/02/21 04:40:48;;;;;;;;;;;;;;;3.79;100.00;96987.08;108052;1270;22524;-85
2024/02/21 04:43:14;;;;;;;;;;;;;;;3.79;100.00;96985.86;108077;1288;22546;-85
2024/02/21 04:45:41;;;;;;;;;;;;;;;3.80;100.00;96992.34;108108;1268;23134;-85
2024/02/21 04:48:08;;;;;;;;;;;;;;;3.80;100.00;96990.44;108131;1281;22532;-85
2024/02/21 04:50:34;;;;;;;;;;;;;;;3.79;100.00;96984.48;108145;1269;22544;-85
2024/02/21 04:53:01;;;;;;;;;;;;;;;3.80;100.00;96990.92;108175;1286;22524;-85
2024/02/21 04:55:27;;;;;;;;;;;;;;;3.79;100.00;96996.30;108145;1287;22507;-84
2024/02/21 04:57:54;;;;;;;;;;;;;;;3.80;100.00;96993.30;108066;1287;22520;-85
2024/02/21 05:00:20;;;;;;;;;;;;;;;3.82;100.00;96995.61;108060;1280;22504;-85
2024/02/21 05:02:46;;;;;;;;;;;;;;;3.80;100.00;96987.88;108051;1287;22528;-85
2024/02/21 05:05:15;;;;;;;;;;;;;;;3.80;100.00;96990.73;108091;1288;24176;-85
2024/02/21 05:07:41;;;;;;;;;;;;;;;3.80;100.00;96990.63;108019;1287;22609;-85
2024/02/21 05:10:08;;;;;;;;;;;;;;;3.78;100.00;96993.67;108169;1287;23637;-85
2024/02/21 05:12:35;;;;;;;;;;;;;;;3.76;100.00;96992.29;108140;1281;22510;-85
2024/02/21 05:15:02;;;;;;;;;;;;;;;3.75;100.00;96995.29;108032;1283;24998;-85
2024/02/21 05:17:29;;;;;;;;;;;;;;;3.74;100.00;96995.03;108077;1287;23150;-85
2024/02/21 05:19:55;;;;;;;;;;;;;;;3.72;100.00;96989.85;108170;1287;23314;-85
2024/02/21 05:22:22;;;;;;;;;;;;;;;3.68;100.00;96986.28;108033;1287;22507;-85
2024/02/21 05:24:48;;;;;;;;;;;;;;;3.64;100.00;96984.39;108048;1279;22637;-85
2024/02/21 05:27:14;;;;;;;;;;;;;;;3.64;100.00;96983.20;108178;1286;22536;-85
2024/02/21 05:29:41;;;;;;;;;;;;;;;3.64;100.00;96979.61;108062;1286;24219;-84
2024/02/21 05:32:07;;;;;;;;;;;;;;;3.65;100.00;96978.45;108039;1287;22516;-85
2024/02/21 05:34:33;;;;;;;;;;;;;;;3.63;100.00;96976.23;108035;1287;22510;-85
2024/02/21 05:37:00;;;;;;;;;;;;;;;3.61;100.00;96969.20;108096;1274;22690;-85
2024/02/21 05:39:29;;;;;;;;;;;;;;;3.58;100.00;96963.05;108074;1286;26782;-86
2024/02/21 05:41:55;;;;;;;;;;;;;;;3.56;100.00;96965.77;108086;1283;23195;-84
2024/02/21 05:44:22;;;;;;;;;;;;;;;3.53;100.00;96967.40;108079;1287;22511;-85
2024/02/21 05:46:49;;;;;;;;;;;;;;;3.52;100.00;96964.77;108104;1287;22840;-85
2024/02/21 05:49:17;;;;;;;;;;;;;;;3.53;100.00;96967.61;108043;1287;22568;-85
2024/02/21 05:51:43;;;;;;;;;;;;;;;3.53;100.00;96961.96;107988;1287;26428;-85
2024/02/21 05:54:09;;;;;;;;;;;;;;;3.51;100.00;96964.33;108053;1284;22554;-84
2024/02/21 05:56:36;;;;;;;;;;;;;;;3.49;100.00;96966.21;108185;1287;25050;-85
2024/02/21 05:59:02;;;;;;;;;;;;;;;3.47;100.00;96966.55;108145;1287;22511;-85
2024/02/21 06:01:28;;;;;;;;;;;;;;;3.42;100.00;96965.75;108129;1281;22520;-85
2024/02/21 06:03:55;;;;;;;;;;;;;;;3.38;100.00;96963.65;108021;1283;22504;-85
2024/02/21 06:06:21;;;;;;;;;;;;;;;3.38;100.00;96957.52;108018;1281;22560;-85
2024/02/21 06:08:48;;;;;;;;;;;;;;;3.38;100.00;96963.86;108038;1286;22514;-85
2024/02/21 06:11:15;;;;;;;;;;;;;;;3.37;100.00;96959.64;108123;1281;25232;-85
2024/02/21 06:13:41;;;;;;;;;;;;;;;3.38;100.00;96964.84;108128;1271;22509;-85
2024/02/21 06:16:08;;;;;;;;;;;;;;;3.39;100.00;96958.46;108171;1287;22503;-85
2024/02/21 06:18:35;;;;;;;;;;;;;;;3.42;100.00;96959.10;108060;1281;22510;-85
2024/02/21 06:21:01;;;;;;;;;;;;;;;3.46;100.00;96959.09;108048;1288;22544;-85
2024/02/21 06:23:28;;;;;;;;;;;;;;;3.52;100.00;96952.57;108190;1287;24154;-85
2024/02/21 06:25:54;;;;;;;;;;;;;;;3.58;100.00;96955.20;108137;1281;22514;-84
2024/02/21 06:28:21;;;;;;;;;;;;;;;3.63;100.00;96955.66;108079;1287;22510;-85
2024/02/21 06:30:47;;;;;;;;;;;;;;;3.68;100.00;96956.50;108136;1287;22528;-86
2024/02/21 06:33:13;;;;;;;;;;;;;;;3.73;100.00;96962.21;108063;1281;24221;-85
2024/02/21 06:35:42;;;;;;;;;;;;;;;3.79;100.00;96961.23;108126;1287;22511;-85
2024/02/21 06:38:08;;;;;;;;;;;;;;;3.86;100.00;96963.33;108173;1287;22581;-85
2024/02/21 06:40:38;;;;;;;;;;;;;;;3.94;100.00;96961.52;108126;1285;22507;-85
2024/02/21 06:43:05;;;;;;;;;;;;;;;4.01;100.00;96960.25;108074;1287;22521;-85
2024/02/21 06:45:33;;;;;;;;;;;;;;;4.07;100.00;96959.11;108033;1288;22587;-85
2024/02/21 06:48:00;;;;;;;;;;;;;;;4.11;100.00;96956.69;108089;1283;22509;-85
2024/02/21 06:50:27;;;;;;;;;;;;;;;4.16;100.00;96956.60;108012;1288;22932;-85
2024/02/21 06:52:53;;;;;;;;;;;;;;;4.20;100.00;96954.98;108174;1287;22555;-85
2024/02/21 06:55:20;;;;;;;;;;;;;;;4.25;100.00;96951.21;107980;1284;22520;-85
2024/02/21 06:57:48;;;;;;;;;;;;;;;4.29;100.00;96952.04;108070;1270;23881;-86
2024/02/21 07:00:15;;;;;;;;;;;;;;;4.33;100.00;96953.64;108124;1271;23837;-85
2024/02/21 07:02:41;;;;;;;;;;;;;;;4.36;100.00;96952.14;108198;1271;24203;-85
2024/02/21 07:05:08;;;;;;;;;;;;;;;4.40;100.00;96955.23;108162;1281;22512;-85
2024/02/21 07:07:35;;;;;;;;;;;;;;;4.44;100.00;96959.23;108053;1287;22555;-85
2024/02/21 07:10:01;;;;;;;;;;;;;;;4.46;100.00;96958.50;108121;1287;26582;-85
2024/02/21 07:12:28;;;;;;;;;;;;;;;4.47;100.00;96955.36;108179;1271;22529;-85
2024/02/21 07:14:54;;;;;;;;;;;;;;;4.47;100.00;96955.71;108144;1268;22532;-85
2024/02/21 07:17:21;;;;;;;;;;;;;;;4.49;100.00;96957.45;108185;1287;24030;-85
2024/02/21 07:19:47;;;;;;;;;;;;;;;4.50;100.00;96956.27;108184;1287;22510;-85
2024/02/21 07:22:13;;;;;;;;;;;;;;;4.52;100.00;96958.13;108232;1287;22547;-85
2024/02/21 07:24:40;;;;;;;;;;;;;;;4.54;100.00;96955.23;108139;1285;22547;-85
2024/02/21 07:27:06;;;;;;;;;;;;;;;4.56;100.00;96955.48;108157;1280;22504;-85
2024/02/21 07:29:33;;;;;;;;;;;;;;;4.59;100.00;96955.39;108170;1287;22507;-85
2024/02/21 07:31:59;;;;;;;;;;;;;;;4.62;100.00;96954.06;108069;1283;24891;-85
2024/02/21 07:34:25;;;;;;;;;;;;;;;4.64;100.00;96955.25;108177;1281;26479;-85
2024/02/21 07:36:52;;;;;;;;;;;;;;;4.67;100.00;96952.96;108000;1283;25388;-85
2024/02/21 07:39:18;;;;;;;;;;;;;;;4.69;100.00;96950.55;108045;1288;22544;-85
2024/02/21 07:41:47;;;;;;;;;;;;;;;4.72;100.00;96950.78;107981;1288;22539;-85
2024/02/21 07:44:14;;;;;;;;;;;;;;;4.77;100.00;96949.20;108030;1288;25375;-85
2024/02/21 07:46:41;;;;;;;;;;;;;;;4.80;100.00;96947.71;108166;1280;22515;-85
2024/02/21 07:49:08;;;;;;;;;;;;;;;4.84;100.00;96947.17;108054;1289;22532;-85
2024/02/21 07:51:36;;;;;;;;;;;;;;;4.86;100.00;96948.39;108142;1285;25217;-85
2024/02/21 07:54:04;;;;;;;;;;;;;;;4.89;100.00;96948.86;108018;1287;22539;-85
2024/02/21 07:56:31;;;;;;;;;;;;;;;4.92;100.00;96946.17;108037;1282;22549;-85
2024/02/21 07:58:57;;;;;;;;;;;;;;;4.95;100.00;96947.13;108123;1287;22825;-85
2024/02/21 08:01:24;;;;;;;;;;;;;;;4.97;100.00;96946.80;108118;1288;22565;-85
2024/02/21 08:03:50;;;;;;;;;;;;;;;4.97;100.00;96941.95;108164;1286;22502;-84
2024/02/21 08:06:16;;;;;;;;;;;;;;;4.98;100.00;96940.67;108044;1289;23766;-85
2024/02/21 08:08:43;;;;;;;;;;;;;;;4.99;100.00;96939.38;107994;1287;22534;-85
2024/02/21 08:11:09;;;;;;;;;;;;;;;5.01;100.00;96940.95;108145;1287;22558;-85
2024/02/21 08:13:36;;;;;;;;;;;;;;;5.02;100.00;96940.48;108151;1287;22626;-85
2024/02/21 08:16:03;;;;;;;;;;;;;;;5.04;100.00;96940.16;108169;1287;22518;-85
2024/02/21 08:18:29;;;;;;;;;;;;;;;5.07;100.00;96934.77;108176;1271;22564;-85
2024/02/21 08:20:56;;;;;;;;;;;;;;;5.10;100.00;96930.83;108070;1289;23251;-85
2024/02/21 08:23:23;;;;;;;;;;;;;;;5.14;100.00;96926.73;108176;1287;22513;-85
2024/02/21 08:25:49;;;;;;;;;;;;;;;5.19;100.00;96929.23;108153;1287;23019;-85
2024/02/21 08:28:16;;;;;;;;;;;;;;;5.23;100.00;96924.20;108049;1287;22536;-85
2024/02/21 08:30:47;;;;;;;;;;;;;;;5.24;100.00;96923.06;108080;1283;22531;-85
2024/02/21 08:33:17;;;;;;;;;;;;;;;5.25;100.00;96920.75;108177;1286;22545;-85
2024/02/21 08:35:43;;;;;;;;;;;;;;;5.26;100.00;96916.20;108092;1287;22511;-85
2024/02/21 08:38:09;;;;;;;;;;;;;;;5.26;100.00;96915.84;108203;1281;22504;-85
2024/02/21 08:40:36;;;;;;;;;;;;;;;5.27;100.00;96916.79;108069;1276;22753;-85
2024/02/21 08:43:03;;;;;;;;;;;;;;;5.28;100.00;96914.54;108091;1287;22614;-85
2024/02/21 08:45:30;;;;;;;;;;;;;;;5.27;100.00;96914.23;108184;1287;22542;-85
2024/02/21 08:47:56;;;;;;;;;;;;;;;5.27;100.00;96910.98;108061;1284;22561;-85
2024/02/21 08:50:23;;;;;;;;;;;;;;;5.28;100.00;96907.65;108096;1276;22567;-85
2024/02/21 08:52:49;;;;;;;;;;;;;;;5.29;100.00;96910.41;108021;1287;22532;-85
2024/02/21 08:55:16;;;;;;;;;;;;;;;5.35;100.00;96908.02;108082;1288;22523;-85
2024/02/21 08:57:42;;;;;;;;;;;;;;;5.40;100.00;96900.73;108217;1287;22534;-86
2024/02/21 09:00:12;;;;;;;;;;;;;;;5.45;100.00;96905.44;108146;1275;22525;-85
2024/02/21 09:02:45;;;;;;;;;;;;;;;5.48;100.00;96906.00;108063;1283;22548;-85
2024/02/21 09:05:11;;;;;;;;;;;;;;;5.51;100.00;96905.70;108047;1277;22528;-85
2024/02/21 09:07:38;;;;;;;;;;;;;;;5.52;100.00;96905.13;108010;1289;22625;-85
2024/02/21 09:10:05;;;;;;;;;;;;;;;5.55;100.00;96908.67;108145;1287;22510;-86
2024/02/21 09:12:31;;;;;;;;;;;;;;;5.58;100.00;96905.23;108020;1287;22633;-85
2024/02/21 09:14:58;;;;;;;;;;;;;;;5.64;100.00;96899.71;107994;1289;22519;-85
2024/02/21 09:17:25;;;;;;;;;;;;;;;5.71;100.00;96900.66;108163;1271;25224;-86
2024/02/21 09:19:54;;;;;;;;;;;;;;;5.78;100.00;96898.36;108095;1271;128880;-85
2024/02/21 09:22:21;;;;;;;;;;;;;;;5.84;100.00;96901.18;108058;1270;22555;-85
2024/02/21 09:24:48;;;;;;;;;;;;;;;5.92;100.00;96901.84;108133;1287;22527;-85
2024/02/21 09:27:14;;;;;;;;;;;;;;;5.97;100.00;96899.00;108138;1287;23290;-85
2024/02/21 09:29:40;;;;;;;;;;;;;;;6.00;100.00;96897.66;108146;1287;22539;-85
2024/02/21 09:32:07;;;;;;;;;;;;;;;6.06;100.00;96896.00;108128;1287;22534;-86
2024/02/21 09:34:33;;;;;;;;;;;;;;;6.13;100.00;96895.34;108185;1266;22511;-85
2024/02/21 09:37:00;;;;;;;;;;;;;;;6.19;100.00;96898.02;108181;1281;22522;-85
2024/02/21 09:39:26;;;;;;;;;;;;;;;6.25;100.00;96892.95;108163;1269;22543;-85
2024/02/21 09:41:56;;;;;;;;;;;;;;;6.31;100.00;96888.66;108114;1281;22511;-85
2024/02/21 09:44:22;;;;;;;;;;;;;;;6.32;100.00;96889.68;109510;1287;22443;-86
2024/02/21 09:46:51;;;;;;;;;;;;;;;6.35;100.00;96886.70;109661;1287;22441;-83
2024/02/21 09:49:29;;;;;;;;;;;;;;;6.40;100.00;96891.11;109668;1285;23170;-83
2024/02/21 09:51:56;;;;;;;;;;;;;;;6.46;100.00;96894.08;109543;1287;23100;-83
2024/02/21 09:54:22;;;;;;;;;;;;;;;6.50;100.00;96893.08;108112;1287;22542;-85
2024/02/21 09:56:49;;;;;;;;;;;;;;;6.51;100.00;96893.31;108054;1289;22510;-85
2024/02/21 09:59:15;;;;;;;;;;;;;;;6.55;100.00;96892.96;108181;1286;22690;-86
2024/02/21 10:01:43;;;;;;;;;;;;;;;6.58;100.00;96898.08;108069;1289;22534;-85
2024/02/21 10:04:10;;;;;;;;;;;;;;;6.62;100.00;96899.45;109512;1281;23224;-83
2024/02/21 10:06:39;;;;;;;;;;;;;;;6.65;100.00;96900.78;108022;1289;22556;-85
2024/02/21 10:09:06;;;;;;;;;;;;;;;6.74;100.00;96902.20;108174;1287;22540;-85
2024/02/21 10:11:36;;;;;;;;;;;;;;;6.81;100.00;96903.02;108067;1283;22511;-85
2024/02/21 10:14:04;;;;;;;;;;;;;;;6.92;100.00;96901.76;108189;1287;22521;-86
2024/02/21 10:16:31;;;;;;;;;;;;;;;7.01;100.00;96896.13;108137;1287;24830;-85
2024/02/21 10:18:57;;;;;;;;;;;;;;;7.03;100.00;96899.39;108068;1283;22514;-85
2024/02/21 10:21:23;;;;;;;;;;;;;;;7.01;100.00;96894.23;108080;1282;25425;-85
2024/02/21 10:23:50;;;;;;;;;;;;;;;7.02;100.00;96889.88;108112;1287;22556;-85
2024/02/21 10:26:17;;;;;;;;;;;;;;;7.04;100.00;96884.77;108071;1284;22511;-85
2024/02/21 10:28:44;;;;;;;;;;;;;;;7.12;100.00;96882.95;108016;1287;22919;-85
2024/02/21 10:31:11;;;;;;;;;;;;;;;7.19;100.00;96882.16;108076;1289;22542;-85
2024/02/21 10:33:37;;;;;;;;;;;;;;;7.19;99.92;96876.41;108138;1283;23264;-85
2024/02/21 10:36:08;;;;;;;;;;;;;;;7.19;100.00;96879.87;108059;1287;22539;-85
2024/02/21 10:38:38;;;;;;;;;;;;;;;7.21;100.00;96886.60;108191;1288;25215;-86
2024/02/21 10:41:05;;;;;;;;;;;;;;;7.22;99.87;96889.77;108038;1289;22540;-86
2024/02/21 10:43:41;;;;;;;;;;;;;;;7.25;99.94;96891.92;108027;1280;23032;-86
2024/02/21 10:46:12;;;;;;;;;;;;;;;7.28;99.91;96888.16;108031;1281;23164;-86
2024/02/21 10:48:42;;;;;;;;;;;;;;;7.33;100.00;96879.94;108016;1284;22687;-86
2024/02/21 10:51:08;;;;;;;;;;;;;;;7.41;100.00;96868.48;108032;1279;22527;-86
2024/02/21 10:53:48;;;;;;;;;;;;;;;7.48;98.37;96866.16;108197;1281;23905;-86
2024/02/21 10:56:14;;;;;;;;;;;;;;;7.54;99.78;96862.91;108066;1272;22504;-86
2024/02/21 10:58:41;;;;;;;;;;;;;;;7.61;99.12;96861.69;108147;1285;22565;-86
2024/02/21 11:01:07;;;;;;;;;;;;;;;7.63;97.28;96862.67;108172;1287;22559;-86
2024/02/21 11:03:35;;;;;;;;;;;;;;;7.62;96.80;96864.28;108131;1280;22529;-86
2024/02/21 11:06:02;;;;;;;;;;;;;;;7.61;95.84;96860.11;108010;1287;22523;-84
2024/02/21 11:08:29;;;;;;;;;;;;;;;7.59;96.11;96851.52;108031;1273;22549;-85
2024/02/21 11:10:59;;;;;;;;;;;;;;;7.61;96.29;96849.63;108160;1287;22515;-85
2024/02/21 11:13:34;;;;;;;;;;;;;;;7.64;96.61;96843.31;109657;1281;22421;-85
2024/02/21 11:16:10;;;;;;;;;;;;;;;7.66;95.21;96833.08;109131;1284;22994;-83
2024/02/21 11:18:37;;;;;;;;;;;;;;;7.70;94.22;96832.63;108002;1287;22529;-86
2024/02/21 11:21:06;;;;;;;;;;;;;;;7.75;93.89;96831.91;108028;1289;25194;-85
2024/02/21 11:23:33;;;;;;;;;;;;;;;7.80;95.01;96830.04;108058;1287;22546;-85
2024/02/21 11:26:06;;;;;;;;;;;;;;;7.87;95.25;96820.27;108038;1287;22507;-85
2024/02/21 11:28:32;;;;;;;;;;;;;;;7.88;93.43;96820.21;108213;1285;22528;-85
2024/02/21 11:31:08;;;;;;;;;;;;;;;7.86;94.74;96816.88;108073;1289;22519;-85
2024/02/21 11:33:35;;;;;;;;;;;;;;;7.85;93.36;96813.90;108109;1283;23012;-85
2024/02/21 11:36:04;;;;;;;;;;;;;;;7.82;92.82;96814.02;108038;1289;22589;-85
2024/02/21 11:38:30;;;;;;;;;;;;;;;7.75;92.59;96807.66;108079;1287;22518;-85
2024/02/21 11:40:58;;;;;;;;;;;;;;;7.71;92.62;96801.38;108180;1287;22518;-85
2024/02/21 11:43:25;;;;;;;;;;;;;;;7.65;92.24;96803.70;108017;1287;22553;-85
2024/02/21 11:46:00;;;;;;;;;;;;;;;7.64;93.64;96800.35;108030;1289;22524;-85
2024/02/21 11:48:26;;;;;;;;;;;;;;;7.63;93.77;96797.79;107972;1281;22567;-86
2024/02/21 11:50:54;;;;;;;;;;;;;;;7.62;93.00;96800.70;108017;1288;24249;-85
2024/02/21 11:53:21;;;;;;;;;;;;;;;7.60;93.14;96796.61;108151;1287;22911;-85
2024/02/21 11:55:47;;;;;;;;;;;;;;;7.60;93.43;96793.98;108002;1287;22535;-85
2024/02/21 11:58:14;;;;;;;;;;;;;;;7.62;93.40;96792.44;108149;1287;22527;-85
2024/02/21 12:00:41;;;;;;;;;;;;;;;7.62;93.07;96786.59;108043;1287;22606;-85
2024/02/21 12:03:07;;;;;;;;;;;;;;;7.60;92.77;96788.11;108152;1281;22511;-85
2024/02/21 12:05:34;;;;;;;;;;;;;;;7.56;91.86;96791.00;108159;1282;22517;-85
2024/02/21 12:08:01;;;;;;;;;;;;;;;7.49;91.89;96789.27;108133;1289;23271;-85
2024/02/21 12:10:27;;;;;;;;;;;;;;;7.42;91.59;96782.70;108131;1286;23088;-85
2024/02/21 12:12:58;;;;;;;;;;;;;;;7.39;92.82;96781.98;108042;1288;22561;-85
2024/02/21 12:15:24;;;;;;;;;;;;;;;7.38;92.83;96784.02;108142;1287;22555;-85
2024/02/21 12:17:51;;;;;;;;;;;;;;;7.38;93.89;96782.05;108015;1289;22540;-86
2024/02/21 12:20:20;;;;;;;;;;;;;;;7.39;93.45;96780.20;107989;1287;22568;-85
2024/02/21 12:22:48;;;;;;;;;;;;;;;7.38;93.34;96780.00;108006;1289;25403;-85
2024/02/21 12:25:19;;;;;;;;;;;;;;;7.37;92.99;96779.27;108134;1282;22510;-85
2024/02/21 12:27:45;;;;;;;;;;;;;;;7.35;93.36;96781.37;108116;1287;22515;-85
2024/02/21 12:30:12;;;;;;;;;;;;;;;7.35;93.40;96776.91;108043;1287;24274;-85
2024/02/21 12:32:38;;;;;;;;;;;;;;;7.35;93.41;96775.79;108059;1288;23409;-86
2024/02/21 12:35:05;;;;;;;;;;;;;;;7.35;93.53;96771.68;108038;1287;24178;-85
2024/02/21 12:37:32;;;;;;;;;;;;;;;7.37;94.24;96765.98;108002;1287;22534;-85